Main page
METAR-TAF:

METAR-TAF

Airports :

Dodge City Regional Airport

Dodge City, Kansas, United States

latitude: 37-46-22N, longitude: 099-58-11W, elevation: 2591 ft

Current weather observation

The report was made 54 minutes ago, at 00:52 UTC
Wind 9 mph from the West/Northwest
Temperature 45°F
Humidity 42%
Pressure 30.07 in. Hg
Visibility: 10 miles
Clear sky

METAR: KDDC 240052Z AUTO 30008KT 10SM CLR 07/M05 A3007 RMK AO2 SLP190 T00671050

Time: 19:46 (01:46 UTC)

Forecast

The report was made 2 hours and 26 minutes ago, at 23:20 UTC
Forecast valid from 24 at 00 UTC to 24 at 24 UTC
Wind 15 mph from the West/Northwest
Visibility: 6 miles
Scattered clouds at a height of 9000 ft
From 24 at 1700 UTC
Wind 16 mph from the Southwest
Visibility: 6 miles
Clear sky
From 24 at 1900 UTC
Wind 18 mph from the South/Southwest
Visibility: 6 miles
Clear sky

TAF: KDDC 232320Z 2400/2424 30013KT P6SM SCT090 FM241700 22014KT P6SM SKC FM241900 21016KT P6SM SKC

Weather observations and forecasts of more than 4000 airports (METAR and TAF reports).

The available stations are represented by yellow and red dots on the map.

Hover mouse over dot to see the name of the station.

Then click to see weather observations and forecasts.

To change the map : click on the green buttons with a black cross to zoom in, on the green button with a dash to zoom out, or on the green arrows for adjacent maps.


METAR-TAF: